Destelbergen, Belgium
Current Conditions -  °F | °C
As of 2:25 AM on Saturday 25 Oct 2014 (Local Time) from EHFS Reporting Station
Overcast Overcast  
Wind Chill: 55°   Ceiling: 700
Heat Index: 55°   Visibility: 4mi
Dew Point: 55°   Wind: 16mph
Humidity: 100%   Direction: 210°SSW
Pressure: 29.97"   Gusts: NA
Location:  51.06°N, 3.8°E
Report Text: EHFS 250025Z AUTO 21014KT 7000 SCT006/// OVC007/// 13/13 Q1015
Loading
Personal Weather Stations






























Interactive Weather Map
Tropical Storm Tracking
New forecast layout! Learn more

10-Day Weather Forecast

Advertisements
Track Severe Weather on mobile